Time;durP1;ratioP1;P1;durP2;ratioP2;P2;SDS_P1;SDS_P2;PMS_P1;PMS_P2;Temp;Humidity;BMP_temperature;BMP_pressure;BME280_temperature;BME280_humidity;BME280_pressure;Samples;Min_cycle;Max_cycle;Signal;HPM_P1;HPM_P2
2021/12/05 00:20:11;;;;;;;8.68;2.20;;;;;;;;;;4988879;28;20054;-55
2021/12/05 00:22:40;;;;;;;7.28;1.73;;;;;;;;;;4983378;28;20073;-52
2021/12/05 00:25:08;;;;;;;8.45;1.70;;;;;;;;;;5002809;28;20062;-52
2021/12/05 00:27:42;;;;;;;7.15;1.88;;;;;;;;;;5000049;28;20070;-53
2021/12/05 00:30:23;;;;;;;8.23;1.90;;;;;;;;;;5020900;28;20143;-50
2021/12/05 00:32:54;;;;;;;5.45;1.80;;;;;;;;;;5000622;28;20066;-52
2021/12/05 00:47:19;;;;;;;10.02;2.20;;;;;;;;;;4959693;28;20165;-54
2021/12/05 00:52:57;;;;;;;10.27;2.00;;;;;;;;;;4992418;28;20198;-54
2021/12/05 00:55:44;;;;;;;8.82;1.88;;;;;;;;;;5000795;28;20050;-50
2021/12/05 01:09:29;;;;;;;7.22;2.10;;;;;;;;;;4999870;28;20536;-55
2021/12/05 01:12:32;;;;;;;8.00;2.15;;;;;;;;;;5003445;28;20081;-56
2021/12/05 01:15:04;;;;;;;5.57;1.33;;;;;;;;;;5014527;28;20070;-52
2021/12/05 01:17:38;;;;;;;11.10;1.70;;;;;;;;;;5021772;28;20140;-53
2021/12/05 01:20:09;;;;;;;6.47;1.48;;;;;;;;;;5017936;28;20062;-55
2021/12/05 01:22:40;;;;;;;4.63;1.38;;;;;;;;;;5002152;28;20113;-51
2021/12/05 01:25:18;;;;;;;6.10;1.63;;;;;;;;;;4997706;28;20054;-53
2021/12/05 01:27:50;;;;;;;9.70;1.40;;;;;;;;;;4987072;28;20053;-55
2021/12/05 01:30:26;;;;;;;8.75;1.83;;;;;;;;;;5016809;28;20073;-55
2021/12/05 01:33:02;;;;;;;13.63;2.00;;;;;;;;;;5021157;28;20065;-55
2021/12/05 01:35:43;;;;;;;7.93;2.10;;;;;;;;;;5003722;28;20078;-55
2021/12/05 01:38:16;;;;;;;9.57;2.08;;;;;;;;;;5004453;28;20492;-53
2021/12/05 01:41:03;;;;;;;8.88;1.60;;;;;;;;;;5017194;28;20062;-52
2021/12/05 01:49:29;;;;;;;6.78;1.17;;;;;;;;;;4989371;28;20059;-52
2021/12/05 01:55:21;;;;;;;4.60;1.25;;;;;;;;;;4903105;29;20062;-54
2021/12/05 01:58:05;;;;;;;11.32;1.67;;;;;;;;;;4985317;28;20061;-54
2021/12/05 02:09:10;;;;;;;7.68;1.50;;;;;;;;;;4994407;28;20058;-49
2021/12/05 02:31:12;;;;;;;9.57;1.42;;;;;;;;;;5022800;28;20108;-53
2021/12/05 02:33:51;;;;;;;4.15;1.15;;;;;;;;;;5017476;28;20062;-51
2021/12/05 02:36:43;;;;;;;3.38;0.90;;;;;;;;;;5023072;28;20072;-54
2021/12/05 02:39:24;;;;;;;9.70;1.80;;;;;;;;;;5004528;28;20058;-55
2021/12/05 02:41:53;;;;;;;4.32;1.20;;;;;;;;;;5023414;28;20064;-54
2021/12/05 02:44:23;;;;;;;10.95;1.10;;;;;;;;;;5002944;28;20086;-50
2021/12/05 02:46:52;;;;;;;10.10;1.60;;;;;;;;;;5006775;28;20394;-53
2021/12/05 02:49:24;;;;;;;8.50;2.53;;;;;;;;;;4986506;28;20496;-52
2021/12/05 02:51:55;;;;;;;10.50;1.70;;;;;;;;;;5005115;28;20058;-55
2021/12/05 02:54:25;;;;;;;12.32;1.70;;;;;;;;;;5019821;28;20145;-55
2021/12/05 02:56:52;;;;;;;12.45;1.42;;;;;;;;;;5024137;28;20161;-56
2021/12/05 02:59:24;;;;;;;8.23;1.48;;;;;;;;;;5020133;28;20051;-54
2021/12/05 03:01:55;;;;;;;7.20;1.48;;;;;;;;;;5105906;23;20058;-54
2021/12/05 03:04:23;;;;;;;10.25;1.58;;;;;;;;;;4984765;28;20043;-48
2021/12/05 03:06:59;;;;;;;13.10;1.58;;;;;;;;;;5024141;28;20488;-52
2021/12/05 03:09:27;;;;;;;4.45;1.38;;;;;;;;;;5016313;28;20078;-54
2021/12/05 03:11:54;;;;;;;6.07;1.40;;;;;;;;;;5008486;28;20054;-51
2021/12/05 03:14:21;;;;;;;7.07;1.52;;;;;;;;;;4987209;28;20590;-50
2021/12/05 03:16:48;;;;;;;8.65;1.42;;;;;;;;;;4991813;28;20062;-51
2021/12/05 03:19:15;;;;;;;3.80;1.33;;;;;;;;;;4991750;28;20129;-50
2021/12/05 03:21:42;;;;;;;4.55;1.25;;;;;;;;;;5001296;28;20050;-54
2021/12/05 03:24:10;;;;;;;6.75;1.35;;;;;;;;;;4991748;28;20138;-47
2021/12/05 03:26:41;;;;;;;7.38;1.30;;;;;;;;;;4997376;28;20074;-52
2021/12/05 03:29:09;;;;;;;6.97;1.42;;;;;;;;;;5004811;28;20055;-52
2021/12/05 03:31:36;;;;;;;6.88;1.50;;;;;;;;;;5002317;28;20054;-54
2021/12/05 03:34:03;;;;;;;7.57;1.65;;;;;;;;;;5006600;28;20515;-53
2021/12/05 03:36:30;;;;;;;13.43;1.48;;;;;;;;;;4989391;28;20101;-51
2021/12/05 03:38:59;;;;;;;3.97;1.30;;;;;;;;;;4989414;28;20050;-54
2021/12/05 03:41:26;;;;;;;7.32;1.70;;;;;;;;;;5007502;28;20058;-53
2021/12/05 03:43:57;;;;;;;5.85;1.42;;;;;;;;;;4999590;28;20058;-53
2021/12/05 03:46:25;;;;;;;11.35;1.70;;;;;;;;;;5004387;28;20365;-53
2021/12/05 03:48:53;;;;;;;5.82;1.58;;;;;;;;;;5002902;28;20054;-53
2021/12/05 03:51:20;;;;;;;8.27;1.67;;;;;;;;;;5007939;28;20054;-55
2021/12/05 03:53:47;;;;;;;8.57;1.83;;;;;;;;;;4987635;28;20058;-52
2021/12/05 03:56:16;;;;;;;9.55;2.15;;;;;;;;;;4975621;28;20305;-52
2021/12/05 03:58:43;;;;;;;7.97;1.80;;;;;;;;;;4992105;28;20054;-51
2021/12/05 04:01:12;;;;;;;7.28;1.48;;;;;;;;;;4987143;28;20090;-51
2021/12/05 04:03:39;;;;;;;;;;;;;;;;;;5007951;28;20070;-51
2021/12/05 04:06:08;;;;;;;8.07;2.13;;;;;;;;;;5003529;28;19922;-52
2021/12/05 04:08:35;;;;;;;7.95;1.52;;;;;;;;;;4990369;28;20061;-47
2021/12/05 04:11:05;;;;;;;6.80;1.52;;;;;;;;;;4986109;28;20055;-50
2021/12/05 04:13:32;;;;;;;8.15;1.58;;;;;;;;;;4987384;28;20061;-51
2021/12/05 04:16:01;;;;;;;4.43;1.40;;;;;;;;;;4971656;28;20066;-47
2021/12/05 04:18:29;;;;;;;3.45;0.98;;;;;;;;;;4990618;28;20050;-48
2021/12/05 04:20:56;;;;;;;7.72;1.40;;;;;;;;;;4990907;28;20104;-51
2021/12/05 04:23:22;;;;;;;5.28;1.35;;;;;;;;;;4985909;28;20058;-48
2021/12/05 04:25:52;;;;;;;11.32;1.65;;;;;;;;;;4996175;28;20073;-51
2021/12/05 04:28:20;;;;;;;7.82;1.50;;;;;;;;;;5005367;28;20042;-49
2021/12/05 04:30:46;;;;;;;4.82;1.30;;;;;;;;;;4990449;28;20121;-51
2021/12/05 04:33:13;;;;;;;5.55;1.10;;;;;;;;;;4986434;28;20050;-53
2021/12/05 04:35:46;;;;;;;9.27;1.60;;;;;;;;;;4990950;28;20440;-49
2021/12/05 04:38:12;;;;;;;5.20;1.42;;;;;;;;;;5003521;28;20136;-51
2021/12/05 04:40:40;;;;;;;6.93;1.67;;;;;;;;;;4991141;28;20102;-48
2021/12/05 04:43:06;;;;;;;9.38;2.00;;;;;;;;;;4986654;28;20085;-49
2021/12/05 04:45:34;;;;;;;6.28;1.88;;;;;;;;;;4991174;28;20108;-49
2021/12/05 04:48:02;;;;;;;5.18;1.63;;;;;;;;;;4986910;28;20137;-51
2021/12/05 04:50:28;;;;;;;9.98;1.50;;;;;;;;;;5007232;28;20078;-52
2021/12/05 04:52:57;;;;;;;8.40;2.15;;;;;;;;;;5002952;28;20049;-50
2021/12/05 04:55:25;;;;;;;6.05;1.95;;;;;;;;;;5043564;28;20085;-49
2021/12/05 04:57:52;;;;;;;6.03;1.37;;;;;;;;;;5038471;28;20046;-50
2021/12/05 05:00:20;;;;;;;6.35;1.50;;;;;;;;;;5026593;28;20328;-54
2021/12/05 05:02:46;;;;;;;6.78;1.50;;;;;;;;;;5026572;28;20061;-53
2021/12/05 05:05:29;;;;;;;2.88;1.35;;;;;;;;;;5021832;28;20042;-53
2021/12/05 05:07:58;;;;;;;4.70;1.20;;;;;;;;;;5042914;28;20141;-52
2021/12/05 05:10:28;;;;;;;4.40;1.58;;;;;;;;;;5019763;28;20054;-54
2021/12/05 05:12:55;;;;;;;8.00;1.52;;;;;;;;;;5016408;28;20100;-53
2021/12/05 05:15:25;;;;;;;7.32;1.52;;;;;;;;;;5006024;28;20074;-52
2021/12/05 05:17:52;;;;;;;7.05;1.48;;;;;;;;;;5026419;28;20081;-49
2021/12/05 05:20:24;;;;;;;5.93;1.75;;;;;;;;;;5039182;28;20049;-48
2021/12/05 05:23:07;;;;;;;5.18;1.88;;;;;;;;;;5043175;28;20069;-54
2021/12/05 05:26:22;;;;;;;6.18;1.85;;;;;;;;;;5038948;28;20109;-50
2021/12/05 05:40:10;;;;;;;3.03;1.45;;;;;;;;;;5042266;28;20049;-50
2021/12/05 05:45:50;;;;;;;6.95;2.15;;;;;;;;;;5043524;28;20042;-51
2021/12/05 05:51:15;;;;;;;;;;;;;;;;;;4935320;28;20142;-55
2021/12/05 05:53:42;;;;;;;8.20;1.95;;;;;;;;;;4939358;28;19962;-52
2021/12/05 05:56:12;;;;;;;6.43;1.85;;;;;;;;;;4970289;28;20064;-52
2021/12/05 05:58:45;;;;;;;6.30;1.98;;;;;;;;;;5013648;28;20144;-52
2021/12/05 06:01:19;;;;;;;7.55;2.22;;;;;;;;;;5009054;28;20054;-50
2021/12/05 06:03:47;;;;;;;7.28;1.90;;;;;;;;;;5029507;28;20053;-53
2021/12/05 06:06:17;;;;;;;4.78;1.95;;;;;;;;;;5025576;28;20046;-53
2021/12/05 06:08:44;;;;;;;4.55;1.75;;;;;;;;;;5029899;28;20062;-49
2021/12/05 06:11:12;;;;;;;4.78;1.58;;;;;;;;;;5041391;28;20080;-55
2021/12/05 06:13:41;;;;;;;7.63;1.93;;;;;;;;;;5027474;28;20061;-53
2021/12/05 06:16:11;;;;;;;6.53;2.10;;;;;;;;;;5040522;28;20054;-54
2021/12/05 06:18:39;;;;;;;6.60;1.50;;;;;;;;;;5045928;28;20050;-48
2021/12/05 06:21:06;;;;;;;5.38;1.73;;;;;;;;;;5005385;28;20046;-54
2021/12/05 06:23:32;;;;;;;4.80;1.80;;;;;;;;;;5029377;28;20050;-54
2021/12/05 06:25:59;;;;;;;4.93;1.55;;;;;;;;;;5028916;28;20120;-52
2021/12/05 06:28:32;;;;;;;8.15;1.90;;;;;;;;;;5025397;28;20057;-52
2021/12/05 06:31:08;;;;;;;3.05;1.30;;;;;;;;;;5029140;28;20053;-55
2021/12/05 06:41:56;;;;;;;4.72;1.50;;;;;;;;;;5007915;28;20054;-56
2021/12/05 06:47:16;;;;;;;4.20;1.38;;;;;;;;;;4974088;28;21082;-53
2021/12/05 06:49:44;;;;;;;4.28;1.48;;;;;;;;;;5012648;28;20502;-47
2021/12/05 06:52:10;;;;;;;5.90;1.95;;;;;;;;;;5025363;28;20057;-51
2021/12/05 06:54:38;;;;;;;3.42;1.35;;;;;;;;;;5011352;28;20054;-48
2021/12/05 06:57:18;;;;;;;6.93;1.60;;;;;;;;;;5029166;28;20054;-51
2021/12/05 06:59:47;;;;;;;4.28;1.60;;;;;;;;;;5025781;28;20116;-52
2021/12/05 07:02:15;;;;;;;4.70;1.60;;;;;;;;;;5028751;28;20120;-51
2021/12/05 07:04:54;;;;;;;5.22;1.50;;;;;;;;;;5024160;28;20490;-51
2021/12/05 07:07:23;;;;;;;3.83;1.40;;;;;;;;;;5028280;28;20050;-49
2021/12/05 07:09:50;;;;;;;7.00;1.80;;;;;;;;;;5023623;28;20054;-51
2021/12/05 07:15:04;;;;;;;2.90;1.23;;;;;;;;;;5008774;28;20053;-53
2021/12/05 07:20:10;;;;;;;3.30;1.80;;;;;;;;;;4990218;28;20054;-51
2021/12/05 07:22:44;;;;;;;6.97;1.50;;;;;;;;;;4992435;28;20050;-52
2021/12/05 07:25:14;;;;;;;3.40;1.35;;;;;;;;;;5002642;28;20073;-53
2021/12/05 07:41:26;;;;;;;2.58;1.30;;;;;;;;;;5033418;28;20797;-54
2021/12/05 07:43:53;;;;;;;1.77;0.98;;;;;;;;;;5027861;28;20059;-52
2021/12/05 07:46:22;;;;;;;4.03;1.55;;;;;;;;;;5023847;28;20042;-53
2021/12/05 07:48:48;;;;;;;4.38;2.05;;;;;;;;;;5027820;28;20049;-53
2021/12/05 07:51:25;;;;;;;3.55;1.48;;;;;;;;;;5022772;28;20104;-50
2021/12/05 07:53:57;;;;;;;2.70;1.17;;;;;;;;;;5026355;28;20093;-55
2021/12/05 07:56:34;;;;;;;2.55;1.20;;;;;;;;;;5023260;28;20053;-55
2021/12/05 07:59:19;;;;;;;3.17;1.53;;;;;;;;;;5026357;28;20070;-53
2021/12/05 08:15:33;;;;;;;4.20;1.85;;;;;;;;;;5006996;28;20068;-53
2021/12/05 08:17:59;;;;;;;8.55;1.48;;;;;;;;;;5024653;28;20056;-54
2021/12/05 08:20:30;;;;;;;5.18;1.65;;;;;;;;;;5009556;28;20576;-52
2021/12/05 08:22:59;;;;;;;2.08;1.15;;;;;;;;;;5005978;28;20058;-52
2021/12/05 08:25:29;;;;;;;3.17;1.10;;;;;;;;;;5010416;28;20072;-56
2021/12/05 08:28:04;;;;;;;2.63;1.30;;;;;;;;;;5020895;28;20058;-53
2021/12/05 08:30:34;;;;;;;3.65;1.58;;;;;;;;;;5007788;28;20042;-50
2021/12/05 08:33:38;;;;;;;3.03;1.35;;;;;;;;;;5005914;28;20061;-54
2021/12/05 08:36:53;;;;;;;4.80;1.35;;;;;;;;;;5010063;28;20058;-54
2021/12/05 08:40:10;;;;;;;4.38;1.50;;;;;;;;;;4937702;28;20058;-52
2021/12/05 08:42:40;;;;;;;2.58;1.17;;;;;;;;;;5042164;28;20081;-55
2021/12/05 09:24:34;;;;;;;2.63;1.33;;;;;;;;;;5015127;28;20144;-54
2021/12/05 10:03:02;;;;;;;6.63;2.13;;;;;;;;;;4989509;28;19969;-55
2021/12/05 10:11:24;;;;;;;4.50;1.52;;;;;;;;;;5034561;27;20471;-52
2021/12/05 10:14:13;;;;;;;4.47;1.95;;;;;;;;;;5023101;28;20065;-54
2021/12/05 10:19:57;;;;;;;3.38;1.55;;;;;;;;;;5037247;28;20050;-55
2021/12/05 10:36:05;;;;;;;3.00;1.70;;;;;;;;;;5035542;28;20507;-54
2021/12/05 10:38:38;;;;;;;6.13;2.28;;;;;;;;;;5021094;28;20124;-53
2021/12/05 10:41:20;;;;;;;2.75;1.73;;;;;;;;;;5019738;28;20049;-52
2021/12/05 10:43:49;;;;;;;4.30;1.88;;;;;;;;;;5022518;28;20057;-53
2021/12/05 10:46:20;;;;;;;4.63;2.35;;;;;;;;;;5019670;28;20194;-57
2021/12/05 10:48:48;;;;;;;5.85;2.47;;;;;;;;;;5003097;28;20061;-54
2021/12/05 10:51:15;;;;;;;3.50;1.90;;;;;;;;;;5002765;28;20050;-55
2021/12/05 10:53:43;;;;;;;4.70;2.20;;;;;;;;;;5017803;28;20340;-50
2021/12/05 10:56:12;;;;;;;3.83;1.70;;;;;;;;;;5022291;28;20077;-55
2021/12/05 10:58:42;;;;;;;4.75;1.90;;;;;;;;;;5017734;28;20096;-55
2021/12/05 11:01:13;;;;;;;4.97;2.25;;;;;;;;;;5023536;28;20353;-53
2021/12/05 11:03:43;;;;;;;3.95;1.55;;;;;;;;;;5019388;28;20073;-56
2021/12/05 11:06:20;;;;;;;3.50;1.50;;;;;;;;;;5038667;28;20586;-53
2021/12/05 11:08:47;;;;;;;3.15;1.52;;;;;;;;;;5034675;28;20483;-56
2021/12/05 11:11:15;;;;;;;3.47;1.65;;;;;;;;;;5021773;28;20053;-55
2021/12/05 11:13:43;;;;;;;4.85;2.45;;;;;;;;;;5018426;28;20062;-56
2021/12/05 11:16:26;;;;;;;4.55;2.20;;;;;;;;;;5022728;28;20120;-56
2021/12/05 11:18:54;;;;;;;2.83;1.65;;;;;;;;;;5018372;28;20132;-56
2021/12/05 11:21:24;;;;;;;5.05;2.13;;;;;;;;;;5015729;28;20586;-49
2021/12/05 11:24:03;;;;;;;5.07;2.75;;;;;;;;;;5005683;28;20053;-52
2021/12/05 11:26:30;;;;;;;2.67;1.55;;;;;;;;;;5009457;28;20062;-54
2021/12/05 11:28:58;;;;;;;6.63;2.25;;;;;;;;;;5006509;28;20070;-53
2021/12/05 11:31:26;;;;;;;4.25;2.13;;;;;;;;;;5011571;28;20058;-56
2021/12/05 11:33:55;;;;;;;4.18;2.30;;;;;;;;;;5007400;28;20053;-48
2021/12/05 11:36:24;;;;;;;3.67;1.58;;;;;;;;;;5009281;28;20076;-51
2021/12/05 11:38:51;;;;;;;3.22;1.75;;;;;;;;;;5005363;28;20057;-56
2021/12/05 11:41:20;;;;;;;2.85;1.50;;;;;;;;;;5008539;28;20042;-55
2021/12/05 11:43:47;;;;;;;2.90;1.50;;;;;;;;;;5003669;28;20057;-55
2021/12/05 11:46:17;;;;;;;3.80;1.88;;;;;;;;;;5008996;28;20670;-51
2021/12/05 11:48:44;;;;;;;7.65;2.70;;;;;;;;;;5005836;28;20112;-57
2021/12/05 11:51:20;;;;;;;4.47;2.00;;;;;;;;;;4993241;28;20065;-52
2021/12/05 11:53:48;;;;;;;4.50;2.15;;;;;;;;;;5008223;28;20305;-53
2021/12/05 11:56:17;;;;;;;7.63;2.78;;;;;;;;;;5004985;28;20081;-57
2021/12/05 11:58:44;;;;;;;4.53;2.03;;;;;;;;;;5008097;28;20049;-56
2021/12/05 12:01:14;;;;;;;4.38;2.05;;;;;;;;;;5004174;28;20136;-54
2021/12/05 12:03:41;;;;;;;4.25;2.38;;;;;;;;;;5008181;28;20099;-54
2021/12/05 12:06:08;;;;;;;4.38;2.33;;;;;;;;;;5004870;28;20065;-57
2021/12/05 12:08:36;;;;;;;3.72;2.00;;;;;;;;;;5008598;28;20058;-56
2021/12/05 12:11:03;;;;;;;3.20;1.63;;;;;;;;;;5003884;28;20511;-52
2021/12/05 12:13:31;;;;;;;5.55;2.63;;;;;;;;;;5007850;28;20058;-55
2021/12/05 12:16:02;;;;;;;3.85;2.10;;;;;;;;;;5004649;28;20058;-56
2021/12/05 12:18:32;;;;;;;3.95;2.03;;;;;;;;;;5008212;28;20053;-56
2021/12/05 12:21:00;;;;;;;3.85;1.90;;;;;;;;;;5004087;28;20069;-57
2021/12/05 12:23:27;;;;;;;6.38;2.15;;;;;;;;;;5008222;28;20045;-56
2021/12/05 12:25:57;;;;;;;4.88;2.17;;;;;;;;;;5004909;28;20133;-57
2021/12/05 12:28:23;;;;;;;3.55;1.92;;;;;;;;;;5009347;28;20053;-56
2021/12/05 12:30:54;;;;;;;4.15;2.17;;;;;;;;;;4997731;28;20050;-55
2021/12/05 12:33:23;;;;;;;7.53;2.60;;;;;;;;;;5007013;28;20061;-56
2021/12/05 12:35:50;;;;;;;3.53;2.08;;;;;;;;;;5003989;28;20050;-56
2021/12/05 12:38:18;;;;;;;3.35;2.00;;;;;;;;;;5007943;28;20073;-56
2021/12/05 12:40:45;;;;;;;4.32;2.00;;;;;;;;;;5005082;28;20058;-55
2021/12/05 12:43:27;;;;;;;4.65;2.15;;;;;;;;;;5007636;28;20054;-57
2021/12/05 12:45:55;;;;;;;3.97;2.00;;;;;;;;;;5006310;28;20046;-55
2021/12/05 12:48:28;;;;;;;3.38;1.85;;;;;;;;;;5007064;28;20136;-52
2021/12/05 12:50:55;;;;;;;3.65;1.73;;;;;;;;;;5008024;28;20108;-55
2021/12/05 12:53:23;;;;;;;4.63;2.00;;;;;;;;;;5004314;28;20121;-53
2021/12/05 12:55:54;;;;;;;6.03;2.90;;;;;;;;;;5009086;28;20046;-55
2021/12/05 12:58:37;;;;;;;3.78;1.83;;;;;;;;;;5005984;28;20045;-52
2021/12/05 13:01:16;;;;;;;4.50;2.08;;;;;;;;;;5009873;28;20057;-57
2021/12/05 13:04:26;;;;;;;3.55;2.00;;;;;;;;;;5019374;28;20366;-55
2021/12/05 13:12:49;;;;;;;4.30;1.85;;;;;;;;;;4934891;28;20069;-55
2021/12/05 13:15:17;;;;;;;3.40;1.77;;;;;;;;;;4998899;28;20050;-55
2021/12/05 13:17:47;;;;;;;3.40;1.80;;;;;;;;;;5003420;28;20096;-55
2021/12/05 13:20:14;;;;;;;5.30;2.03;;;;;;;;;;5007185;28;20152;-55
2021/12/05 13:23:00;;;;;;;5.25;2.03;;;;;;;;;;5003318;28;20100;-58
2021/12/05 13:25:27;;;;;;;3.97;1.95;;;;;;;;;;5005958;28;20143;-54
2021/12/05 13:27:54;;;;;;;5.43;2.15;;;;;;;;;;5003430;28;20056;-54
2021/12/05 13:30:28;;;;;;;5.93;2.42;;;;;;;;;;5006797;28;20057;-56
2021/12/05 13:33:10;;;;;;;4.97;2.40;;;;;;;;;;5002737;28;20056;-55
2021/12/05 13:35:40;;;;;;;4.63;2.50;;;;;;;;;;5006164;28;20073;-55
2021/12/05 13:38:07;;;;;;;7.00;2.72;;;;;;;;;;5002941;28;20060;-57
2021/12/05 13:40:38;;;;;;;4.75;2.38;;;;;;;;;;5006768;28;20058;-54
2021/12/05 13:43:08;;;;;;;6.50;2.88;;;;;;;;;;5023012;28;20073;-54
2021/12/05 13:45:41;;;;;;;5.53;2.70;;;;;;;;;;5021390;28;20535;-55
2021/12/05 13:48:26;;;;;;;5.25;2.35;;;;;;;;;;5006846;28;20107;-54
2021/12/05 13:50:58;;;;;;;4.20;2.33;;;;;;;;;;4991438;28;20143;-56
2021/12/05 13:53:35;;;;;;;4.95;2.47;;;;;;;;;;5007990;28;20108;-54
2021/12/05 13:56:08;;;;;;;4.88;2.03;;;;;;;;;;4990619;28;20061;-54
2021/12/05 13:58:40;;;;;;;4.57;2.17;;;;;;;;;;5039733;28;20046;-57
2021/12/05 14:01:10;;;;;;;7.13;2.53;;;;;;;;;;5004561;28;20061;-53
2021/12/05 14:03:46;;;;;;;3.88;2.00;;;;;;;;;;5006693;28;20057;-57
2021/12/05 14:06:28;;;;;;;4.30;2.25;;;;;;;;;;5002925;28;20081;-54
2021/12/05 14:08:57;;;;;;;4.00;2.30;;;;;;;;;;5005160;28;20395;-56
2021/12/05 14:11:23;;;;;;;3.80;1.80;;;;;;;;;;5002908;28;20153;-55
2021/12/05 14:13:50;;;;;;;5.55;2.58;;;;;;;;;;5006428;28;20136;-56
2021/12/05 14:16:17;;;;;;;4.47;2.40;;;;;;;;;;5002860;28;20355;-56
2021/12/05 14:18:43;;;;;;;6.38;3.10;;;;;;;;;;5007055;28;20054;-56
2021/12/05 14:21:13;;;;;;;4.85;2.25;;;;;;;;;;5003694;28;20144;-53
2021/12/05 14:23:47;;;;;;;5.75;3.08;;;;;;;;;;5008558;28;20057;-55
2021/12/05 14:26:19;;;;;;;6.75;2.90;;;;;;;;;;5005014;28;20146;-56
2021/12/05 14:28:54;;;;;;;6.05;2.72;;;;;;;;;;5006607;28;20122;-55
2021/12/05 14:31:22;;;;;;;5.50;2.80;;;;;;;;;;5002478;28;20065;-55
2021/12/05 14:33:49;;;;;;;4.38;2.40;;;;;;;;;;5022746;28;20084;-56
2021/12/05 14:36:20;;;;;;;4.32;2.17;;;;;;;;;;5002639;28;20161;-54
2021/12/05 14:38:48;;;;;;;7.05;3.10;;;;;;;;;;5005686;28;20061;-54
2021/12/05 14:41:15;;;;;;;6.60;2.88;;;;;;;;;;5001764;28;20128;-58
2021/12/05 14:43:41;;;;;;;5.15;2.53;;;;;;;;;;5005956;28;20058;-56
2021/12/05 14:46:09;;;;;;;4.80;2.30;;;;;;;;;;5002507;28;20045;-55
2021/12/05 14:48:36;;;;;;;4.88;2.50;;;;;;;;;;5006114;28;20408;-56
2021/12/05 14:51:04;;;;;;;4.97;2.53;;;;;;;;;;4993162;28;21357;-56
2021/12/05 14:53:30;;;;;;;4.57;2.30;;;;;;;;;;5022313;28;20407;-55
2021/12/05 14:56:00;;;;;;;5.10;2.25;;;;;;;;;;5004033;28;20507;-57
2021/12/05 14:58:30;;;;;;;4.38;2.00;;;;;;;;;;5008269;28;20351;-55
2021/12/05 15:00:58;;;;;;;5.18;2.10;;;;;;;;;;5009176;28;20054;-53
2021/12/05 15:03:25;;;;;;;6.93;2.20;;;;;;;;;;5005439;28;20074;-57
2021/12/05 15:05:54;;;;;;;4.78;2.35;;;;;;;;;;5009350;28;20077;-57
2021/12/05 15:08:22;;;;;;;5.38;2.42;;;;;;;;;;5005499;28;20133;-53
2021/12/05 15:10:53;;;;;;;4.47;2.20;;;;;;;;;;5008907;28;20058;-56
2021/12/05 15:13:22;;;;;;;6.68;2.13;;;;;;;;;;5005244;28;20117;-57
2021/12/05 15:15:50;;;;;;;4.07;1.92;;;;;;;;;;5009566;28;20077;-55
2021/12/05 15:18:18;;;;;;;5.68;2.53;;;;;;;;;;5006583;28;20081;-55
2021/12/05 15:20:46;;;;;;;4.90;2.10;;;;;;;;;;5009837;28;20147;-56
2021/12/05 15:23:12;;;;;;;4.35;1.92;;;;;;;;;;5005510;28;20050;-56
2021/12/05 15:25:42;;;;;;;5.13;2.15;;;;;;;;;;5010053;28;20052;-55
2021/12/05 15:28:11;;;;;;;4.85;2.30;;;;;;;;;;5006560;28;20152;-53
2021/12/05 15:30:39;;;;;;;4.15;1.98;;;;;;;;;;5009267;28;20054;-57
2021/12/05 15:33:09;;;;;;;6.88;2.28;;;;;;;;;;5004857;28;20085;-55
2021/12/05 15:35:36;;;;;;;4.78;2.20;;;;;;;;;;5008801;28;20089;-57
2021/12/05 15:38:03;;;;;;;4.95;2.05;;;;;;;;;;5022135;28;20072;-53
2021/12/05 15:40:31;;;;;;;3.77;2.03;;;;;;;;;;5008773;28;20152;-56
2021/12/05 15:43:01;;;;;;;3.45;1.73;;;;;;;;;;5005576;28;20062;-56
2021/12/05 15:45:29;;;;;;;4.43;2.15;;;;;;;;;;5007860;28;20137;-55
2021/12/05 15:47:57;;;;;;;5.72;2.10;;;;;;;;;;5010366;28;20145;-56
2021/12/05 15:50:26;;;;;;;4.43;2.28;;;;;;;;;;5010892;28;20045;-53
2021/12/05 15:52:54;;;;;;;4.07;2.05;;;;;;;;;;5011894;28;20046;-54
2021/12/05 15:55:24;;;;;;;4.43;2.05;;;;;;;;;;5004737;28;20058;-55
2021/12/05 15:57:52;;;;;;;4.20;1.98;;;;;;;;;;5008497;28;20108;-57
2021/12/05 16:00:21;;;;;;;4.75;2.30;;;;;;;;;;5005044;28;20058;-56
2021/12/05 16:02:49;;;;;;;4.57;2.25;;;;;;;;;;5008511;28;20073;-57
2021/12/05 16:05:21;;;;;;;4.45;2.15;;;;;;;;;;5004842;28;20518;-57
2021/12/05 16:07:48;;;;;;;4.80;2.20;;;;;;;;;;5008364;28;20054;-55
2021/12/05 16:10:20;;;;;;;5.13;2.67;;;;;;;;;;5004184;28;20049;-58
2021/12/05 16:12:47;;;;;;;7.43;2.65;;;;;;;;;;5007538;28;20065;-52
2021/12/05 16:15:16;;;;;;;11.68;3.80;;;;;;;;;;5004727;28;20069;-54
2021/12/05 16:17:43;;;;;;;8.27;3.15;;;;;;;;;;5008441;28;20053;-56
2021/12/05 16:20:14;;;;;;;7.57;3.58;;;;;;;;;;5004114;28;20069;-55
2021/12/05 16:23:14;;;;;;;9.35;2.75;;;;;;;;;;5007574;28;20053;-54
2021/12/05 16:25:46;;;;;;;4.50;2.47;;;;;;;;;;4931562;28;20179;-53
2021/12/05 16:28:13;;;;;;;6.55;2.72;;;;;;;;;;4934869;28;20722;-56
2021/12/05 16:30:41;;;;;;;4.53;2.17;;;;;;;;;;4960341;28;20103;-55
2021/12/05 16:33:08;;;;;;;6.47;3.00;;;;;;;;;;5008972;28;20458;-57
2021/12/05 16:35:37;;;;;;;4.43;2.25;;;;;;;;;;5005356;28;20085;-57
2021/12/05 16:38:03;;;;;;;;;;;;;;;;;;5007700;28;20049;-55
2021/12/05 16:40:50;;;;;;;6.78;2.28;;;;;;;;;;5005165;28;19995;-53
2021/12/05 16:43:21;;;;;;;4.68;2.10;;;;;;;;;;5009260;28;20049;-56
2021/12/05 16:45:49;;;;;;;5.75;2.95;;;;;;;;;;5006261;28;20100;-52
2021/12/05 16:48:17;;;;;;;6.90;2.90;;;;;;;;;;5016274;28;20519;-51
2021/12/05 16:50:43;;;;;;;5.15;2.70;;;;;;;;;;5002724;28;20057;-53
2021/12/05 16:53:13;;;;;;;6.03;2.78;;;;;;;;;;5008648;28;20057;-53
2021/12/05 16:55:44;;;;;;;4.25;1.92;;;;;;;;;;5005649;28;20184;-57
2021/12/05 16:58:17;;;;;;;5.28;2.55;;;;;;;;;;5042475;28;20056;-57
2021/12/05 17:00:48;;;;;;;6.22;2.63;;;;;;;;;;5007805;28;20053;-51
2021/12/05 17:03:19;;;;;;;6.28;2.63;;;;;;;;;;5040368;28;20172;-55
2021/12/05 17:05:48;;;;;;;10.65;3.88;;;;;;;;;;5024280;28;20077;-54
2021/12/05 17:08:16;;;;;;;9.45;3.88;;;;;;;;;;5003142;28;20053;-55
2021/12/05 17:10:44;;;;;;;8.57;3.72;;;;;;;;;;5008098;28;20060;-53
2021/12/05 17:13:20;;;;;;;7.28;3.17;;;;;;;;;;5038538;28;20050;-53
2021/12/05 17:15:53;;;;;;;7.10;3.15;;;;;;;;;;5009554;28;20050;-56
2021/12/05 17:18:24;;;;;;;6.28;2.65;;;;;;;;;;5008578;28;20064;-55
2021/12/05 17:20:53;;;;;;;7.88;3.35;;;;;;;;;;5010312;28;20056;-57
2021/12/05 17:23:20;;;;;;;8.50;4.18;;;;;;;;;;5005061;28;20470;-57
2021/12/05 17:25:48;;;;;;;7.00;3.10;;;;;;;;;;5008311;28;20148;-55
2021/12/05 17:28:16;;;;;;;7.05;2.92;;;;;;;;;;5003373;28;20293;-54
2021/12/05 17:30:54;;;;;;;5.30;3.08;;;;;;;;;;5007835;28;20049;-56
2021/12/05 17:33:25;;;;;;;5.05;2.35;;;;;;;;;;5003523;28;20111;-56
2021/12/05 17:35:52;;;;;;;10.55;3.42;;;;;;;;;;4998843;28;20099;-57
2021/12/05 17:38:30;;;;;;;6.50;2.80;;;;;;;;;;5004133;28;20054;-54
2021/12/05 17:40:56;;;;;;;9.83;4.50;;;;;;;;;;5007780;28;20160;-53
2021/12/05 17:43:23;;;;;;;8.25;4.03;;;;;;;;;;5003076;28;20132;-54
2021/12/05 17:45:51;;;;;;;8.05;3.90;;;;;;;;;;5007966;28;20135;-54
2021/12/05 17:48:18;;;;;;;8.48;3.95;;;;;;;;;;5003103;28;20052;-51
2021/12/05 17:50:44;;;;;;;7.93;3.83;;;;;;;;;;5005808;28;20069;-54
2021/12/05 17:53:11;;;;;;;8.23;4.00;;;;;;;;;;5003811;28;20157;-54
2021/12/05 17:55:44;;;;;;;8.48;2.85;;;;;;;;;;5007225;28;20499;-52
2021/12/05 17:58:21;;;;;;;5.55;2.92;;;;;;;;;;5038068;28;20058;-55
2021/12/05 18:02:34;;;;;;;8.38;3.55;;;;;;;;;;5037615;28;20145;-54
2021/12/05 18:03:43;;;;;;;10.13;4.28;;;;;;;;;;5001941;28;20057;-55
2021/12/05 18:06:11;;;;;;;11.80;4.07;;;;;;;;;;5005198;28;20058;-54
2021/12/05 18:08:38;;;;;;;7.32;3.10;;;;;;;;;;5002945;28;20077;-56
2021/12/05 18:11:11;;;;;;;9.05;4.00;;;;;;;;;;5008163;28;20069;-57
2021/12/05 18:13:39;;;;;;;8.80;4.30;;;;;;;;;;5005465;28;20076;-54
2021/12/05 18:16:13;;;;;;;8.95;4.32;;;;;;;;;;5039561;28;20065;-54
2021/12/05 18:18:41;;;;;;;11.35;4.63;;;;;;;;;;5006781;28;20101;-55
2021/12/05 18:21:11;;;;;;;9.23;3.97;;;;;;;;;;5019314;28;20062;-56
2021/12/05 18:23:38;;;;;;;8.55;4.05;;;;;;;;;;5023357;28;20104;-54
2021/12/05 18:26:05;;;;;;;6.05;3.10;;;;;;;;;;5037963;28;20058;-50
2021/12/05 18:28:34;;;;;;;8.95;4.10;;;;;;;;;;5008488;28;20115;-57
2021/12/05 18:31:01;;;;;;;10.80;4.38;;;;;;;;;;5036756;28;20064;-56
2021/12/05 18:33:29;;;;;;;10.75;4.32;;;;;;;;;;5009790;28;20065;-55
2021/12/05 18:35:58;;;;;;;10.25;3.60;;;;;;;;;;5039219;28;20074;-54
2021/12/05 18:38:26;;;;;;;12.20;4.95;;;;;;;;;;5010728;28;20054;-61
2021/12/05 18:40:55;;;;;;;12.23;4.93;;;;;;;;;;5008865;28;20096;-54
2021/12/05 18:43:24;;;;;;;;;;;;;;;;;;5013981;28;20062;-54
2021/12/05 18:45:56;;;;;;;10.00;3.63;;;;;;;;;;5008538;28;19925;-55
2021/12/05 18:48:23;;;;;;;8.88;4.50;;;;;;;;;;5044246;28;20487;-56
2021/12/05 18:50:50;;;;;;;14.40;3.85;;;;;;;;;;5007559;28;20501;-57
2021/12/05 18:53:17;;;;;;;14.30;3.53;;;;;;;;;;5019374;28;20159;-57
2021/12/05 18:55:51;;;;;;;6.78;3.28;;;;;;;;;;5010116;28;20111;-54
2021/12/05 18:58:21;;;;;;;10.80;4.80;;;;;;;;;;5009676;28;20066;-53
2021/12/05 19:06:42;;;;;;;7.88;3.90;;;;;;;;;;4911441;28;20063;-56
2021/12/05 19:09:26;;;;;;;9.20;4.25;;;;;;;;;;4917333;28;20168;-55
2021/12/05 19:11:58;;;;;;;12.77;4.28;;;;;;;;;;4969777;28;20120;-54
2021/12/05 19:14:26;;;;;;;8.23;3.55;;;;;;;;;;5008693;28;20054;-54
2021/12/05 19:16:53;;;;;;;;;;;;;;;;;;5007016;28;20049;-55
2021/12/05 19:19:20;;;;;;;7.63;3.28;;;;;;;;;;5009152;28;19947;-54